Stephen M. White — WCU6542 — position and weather

sailwx.info

Track history (hours):
 
Tides and Currents Weather Stations Pressure Air Temp Water Temp Dewpoint Dewpoint Depression Visibility Wind Speed Wind Dir Waves Ship Positions

Stephen M. White

Owner: LOS ANGELES, CITY OF, SAN PEDRO, CA. More information available from US FCC via Universal Licensing System and Coast Guard Vessel Documentation Center.

Last reported at 2015-Mar-02 09:16 UTC. Time now 2015-Mar-03 11:12 UTC.
Position N 33°43' W 118°16'.

Length 20 m.

Type: Pilot. MMSI: 367049470.

Date/timePositionNaut miles runAvg speedWind from/ knotsBaromVisibWave heightAir tempDewpointWater temp
2015-Mar-02 09:16N 33°43' W 118°16'  
2015-Feb-27 08:11N 33°43' W 118°16'0 0.0
2015-Feb-27 07:33N 33°43' W 118°16'0 0.0
2015-Feb-27 06:34N 33°43' W 118°16'0 0.0
2015-Feb-27 05:34N 33°43' W 118°16'0 0.0
2015-Feb-27 04:34N 33°43' W 118°16'2 1.6
2015-Feb-27 03:30N 33°42' W 118°15'2 1.8
2015-Feb-27 02:33N 33°43' W 118°16'1 0.9
2015-Feb-27 01:33N 33°43' W 118°15'1 0.9
2015-Feb-27 00:33N 33°43' W 118°16'3 2.4
2015-Feb-26 23:21N 33°41' W 118°14'3 3.3
2015-Feb-26 22:30N 33°43' W 118°16'0 0.0
2015-Feb-26 21:32N 33°43' W 118°16'0 0.0
2015-Feb-26 20:33N 33°43' W 118°16'0 0.0
2015-Feb-26 19:29N 33°43' W 118°16'0 0.0
2015-Feb-26 18:17N 33°43' W 118°16'0 0.0
2015-Feb-26 17:33N 33°43' W 118°16'0 0.0
2015-Feb-26 16:25N 33°43' W 118°16'0 0.0
2015-Feb-26 15:07N 33°43' W 118°16'0 0.0
2015-Feb-26 14:32N 33°43' W 118°16'0 0.0
2015-Feb-26 13:33N 33°43' W 118°16'1 0.6
2015-Feb-26 12:34N 33°43' W 118°16'1 0.6
2015-Feb-26 11:33N 33°43' W 118°16'0 0.0
2015-Feb-26 10:34N 33°43' W 118°16'0 0.0
2015-Feb-26 09:33N 33°43' W 118°16'0 0.0
2015-Feb-26 08:33N 33°43' W 118°16'1 1.2
2015-Feb-26 07:33N 33°43' W 118°15'1 1.2
2015-Feb-26 06:33N 33°43' W 118°16'0 0.0
2015-Feb-26 05:33N 33°43' W 118°16'0 0.0
2015-Feb-26 04:33N 33°43' W 118°16'0 0.0
2015-Feb-26 03:33N 33°43' W 118°16'0 0.5
2015-Feb-26 02:33N 33°43' W 118°16'0 0.5
2015-Feb-26 01:33N 33°43' W 118°16'0 0.0
2015-Feb-26 00:32N 33°43' W 118°16'0 0.0
2015-Feb-25 23:34N 33°43' W 118°16'0 0.0
2015-Feb-25 22:33N 33°43' W 118°16'0 0.0
2015-Feb-25 21:34N 33°43' W 118°16'0 0.0
2015-Feb-25 20:34N 33°43' W 118°16'0 0.0
2015-Feb-25 19:23N 33°43' W 118°16'3 3.3
2015-Feb-25 18:34N 33°46' W 118°16'6 1.0
2015-Feb-25 12:26N 33°40' W 118°14'4 4.3
2015-Feb-25 11:33N 33°43' W 118°16'0 0.0
2015-Feb-25 10:33N 33°43' W 118°16'0 0.0
2015-Feb-25 09:33N 33°43' W 118°16'0 0.0
2015-Feb-25 08:33N 33°43' W 118°16'0 0.0
2015-Feb-25 07:32N 33°43' W 118°16'0 0.0
2015-Feb-25 06:31N 33°43' W 118°16'0 0.0
2015-Feb-25 05:33N 33°43' W 118°16'0 0.0
2015-Feb-25 04:33N 33°43' W 118°16'0 0.0
2015-Feb-25 03:33N 33°43' W 118°16'0 0.0
2015-Feb-25 02:27N 33°43' W 118°16'0 0.0
2015-Feb-25 01:33N 33°43' W 118°16'0 0.0
2015-Feb-25 00:33N 33°43' W 118°16'0 0.0
2015-Feb-24 23:33N 33°43' W 118°16'0 0.0
2015-Feb-24 22:33N 33°43' W 118°16'0 0.0
2015-Feb-24 21:21N 33°43' W 118°16'  
2015-Feb-21 12:22N 33°44' W 118°13'3 0.2
2015-Feb-20 18:25N 33°43' W 118°16'0 0.0
2015-Feb-20 17:22N 33°43' W 118°16'0 0.0
2015-Feb-20 16:31N 33°43' W 118°16'0 0.1
2015-Feb-20 13:33N 33°43' W 118°16'0 0.2
2015-Feb-20 12:33N 33°43' W 118°16'0 0.0
2015-Feb-20 11:33N 33°43' W 118°16'1 0.7
2015-Feb-20 09:31N 33°43' W 118°15'  
Track history (hours):
 
Tides and Currents Weather Stations Pressure Air Temp Water Temp Dewpoint Dewpoint Depression Visibility Wind Speed Wind Dir Waves Ship Positions

Stephen M. White

Owner: LOS ANGELES, CITY OF, SAN PEDRO, CA. More information available from US FCC via Universal Licensing System and Coast Guard Vessel Documentation Center.

Last reported at 2015-Mar-02 09:16 UTC. Time now 2015-Mar-03 11:12 UTC.
Position N 33°43' W 118°16'.

Length 20 m.

Type: Pilot. MMSI: 367049470.

Date/timePositionNaut miles runAvg speedWind from/ knotsBaromVisibWave heightAir tempDewpointWater temp
2015-Mar-02 09:16N 33°43' W 118°16'  
2015-Feb-27 08:11N 33°43' W 118°16'0 0.0
2015-Feb-27 07:33N 33°43' W 118°16'0 0.0
2015-Feb-27 06:34N 33°43' W 118°16'0 0.0
2015-Feb-27 05:34N 33°43' W 118°16'0 0.0
2015-Feb-27 04:34N 33°43' W 118°16'2 1.6
2015-Feb-27 03:30N 33°42' W 118°15'2 1.8
2015-Feb-27 02:33N 33°43' W 118°16'1 0.9
2015-Feb-27 01:33N 33°43' W 118°15'1 0.9
2015-Feb-27 00:33N 33°43' W 118°16'3 2.4
2015-Feb-26 23:21N 33°41' W 118°14'3 3.3
2015-Feb-26 22:30N 33°43' W 118°16'0 0.0
2015-Feb-26 21:32N 33°43' W 118°16'0 0.0
2015-Feb-26 20:33N 33°43' W 118°16'0 0.0
2015-Feb-26 19:29N 33°43' W 118°16'0 0.0
2015-Feb-26 18:17N 33°43' W 118°16'0 0.0
2015-Feb-26 17:33N 33°43' W 118°16'0 0.0
2015-Feb-26 16:25N 33°43' W 118°16'0 0.0
2015-Feb-26 15:07N 33°43' W 118°16'0 0.0
2015-Feb-26 14:32N 33°43' W 118°16'0 0.0
2015-Feb-26 13:33N 33°43' W 118°16'1 0.6
2015-Feb-26 12:34N 33°43' W 118°16'1 0.6
2015-Feb-26 11:33N 33°43' W 118°16'0 0.0
2015-Feb-26 10:34N 33°43' W 118°16'0 0.0
2015-Feb-26 09:33N 33°43' W 118°16'0 0.0
2015-Feb-26 08:33N 33°43' W 118°16'1 1.2
2015-Feb-26 07:33N 33°43' W 118°15'1 1.2
2015-Feb-26 06:33N 33°43' W 118°16'0 0.0
2015-Feb-26 05:33N 33°43' W 118°16'0 0.0
2015-Feb-26 04:33N 33°43' W 118°16'0 0.0
2015-Feb-26 03:33N 33°43' W 118°16'0 0.5
2015-Feb-26 02:33N 33°43' W 118°16'0 0.5
2015-Feb-26 01:33N 33°43' W 118°16'0 0.0
2015-Feb-26 00:32N 33°43' W 118°16'0 0.0
2015-Feb-25 23:34N 33°43' W 118°16'0 0.0
2015-Feb-25 22:33N 33°43' W 118°16'0 0.0
2015-Feb-25 21:34N 33°43' W 118°16'0 0.0
2015-Feb-25 20:34N 33°43' W 118°16'0 0.0
2015-Feb-25 19:23N 33°43' W 118°16'3 3.3
2015-Feb-25 18:34N 33°46' W 118°16'6 1.0
2015-Feb-25 12:26N 33°40' W 118°14'4 4.3
2015-Feb-25 11:33N 33°43' W 118°16'0 0.0
2015-Feb-25 10:33N 33°43' W 118°16'0 0.0
2015-Feb-25 09:33N 33°43' W 118°16'0 0.0
2015-Feb-25 08:33N 33°43' W 118°16'0 0.0
2015-Feb-25 07:32N 33°43' W 118°16'0 0.0
2015-Feb-25 06:31N 33°43' W 118°16'0 0.0
2015-Feb-25 05:33N 33°43' W 118°16'0 0.0
2015-Feb-25 04:33N 33°43' W 118°16'0 0.0
2015-Feb-25 03:33N 33°43' W 118°16'0 0.0
2015-Feb-25 02:27N 33°43' W 118°16'0 0.0
2015-Feb-25 01:33N 33°43' W 118°16'0 0.0
2015-Feb-25 00:33N 33°43' W 118°16'0 0.0
2015-Feb-24 23:33N 33°43' W 118°16'0 0.0
2015-Feb-24 22:33N 33°43' W 118°16'0 0.0
2015-Feb-24 21:21N 33°43' W 118°16'  
2015-Feb-21 12:22N 33°44' W 118°13'3 0.2
2015-Feb-20 18:25N 33°43' W 118°16'0 0.0
2015-Feb-20 17:22N 33°43' W 118°16'0 0.0
2015-Feb-20 16:31N 33°43' W 118°16'0 0.1
2015-Feb-20 13:33N 33°43' W 118°16'0 0.2
2015-Feb-20 12:33N 33°43' W 118°16'0 0.0
2015-Feb-20 11:33N 33°43' W 118°16'1 0.7
2015-Feb-20 09:31N 33°43' W 118°15'  

Dump ship's entire track history